createdAt,value
2018-10-09T00:02:05.452Z,11.50
2018-10-09T00:04:33.524Z,11.48
2018-10-09T00:07:01.633Z,11.44
2018-10-09T00:09:29.700Z,11.41
2018-10-09T00:11:57.757Z,11.40
2018-10-09T00:14:25.828Z,11.37
2018-10-09T00:16:53.896Z,11.34
2018-10-09T00:19:21.966Z,11.33
2018-10-09T00:21:50.032Z,11.32
2018-10-09T00:24:18.107Z,11.30
2018-10-09T00:26:46.180Z,11.30
2018-10-09T00:29:14.248Z,11.30
2018-10-09T00:31:42.321Z,11.30
2018-10-09T00:34:10.400Z,11.30
2018-10-09T00:36:38.464Z,11.32
2018-10-09T00:39:07.824Z,11.34
2018-10-09T00:41:35.882Z,11.36
2018-10-09T00:44:03.951Z,11.39
2018-10-09T00:46:32.021Z,11.38
2018-10-09T00:49:00.091Z,11.37
2018-10-09T00:51:28.585Z,11.37
2018-10-09T00:53:56.657Z,11.39
2018-10-09T00:56:24.733Z,11.38
2018-10-09T00:58:52.794Z,11.38
2018-10-09T01:01:20.857Z,11.36
2018-10-09T01:03:48.924Z,11.34
2018-10-09T01:06:16.984Z,11.33
2018-10-09T01:08:45.048Z,11.32
2018-10-09T01:11:13.136Z,11.31
2018-10-09T01:13:41.217Z,11.30
2018-10-09T01:16:09.300Z,11.30
2018-10-09T01:18:37.352Z,11.31
2018-10-09T01:21:05.420Z,11.32
2018-10-09T01:23:33.481Z,11.34
2018-10-09T01:26:01.572Z,11.36
2018-10-09T01:28:29.637Z,11.38
2018-10-09T01:30:57.701Z,11.40
2018-10-09T01:33:25.781Z,11.40
2018-10-09T01:35:53.849Z,11.42
2018-10-09T01:38:21.901Z,11.45
2018-10-09T01:40:49.971Z,11.46
2018-10-09T01:43:18.033Z,11.48
2018-10-09T01:45:46.144Z,11.48
2018-10-09T01:48:14.196Z,11.51
2018-10-09T01:50:42.254Z,11.52
2018-10-09T01:53:10.327Z,11.51
2018-10-09T01:55:38.448Z,11.52
2018-10-09T01:58:06.512Z,11.53
2018-10-09T02:00:34.597Z,11.52
2018-10-09T02:03:02.669Z,11.52
2018-10-09T02:05:30.743Z,11.52
2018-10-09T02:07:58.804Z,11.54
2018-10-09T02:10:26.865Z,11.54
2018-10-09T02:12:54.932Z,11.54
2018-10-09T02:15:22.998Z,11.51
2018-10-09T02:17:51.060Z,11.48
2018-10-09T02:20:19.153Z,11.43
2018-10-09T02:22:47.259Z,11.41
2018-10-09T02:25:15.325Z,11.38
2018-10-09T02:27:43.402Z,11.36
2018-10-09T02:30:11.705Z,11.35
2018-10-09T02:32:39.772Z,11.33
2018-10-09T02:35:07.845Z,11.30
2018-10-09T02:37:35.929Z,11.27
2018-10-09T02:40:04.177Z,11.26
2018-10-09T02:42:32.248Z,11.23
2018-10-09T02:45:00.315Z,11.21
2018-10-09T02:47:28.381Z,11.18
2018-10-09T02:49:56.456Z,11.15
2018-10-09T02:52:24.521Z,11.10
2018-10-09T02:54:52.586Z,11.07
2018-10-09T02:57:20.653Z,11.05
2018-10-09T02:59:48.727Z,11.02
2018-10-09T03:02:16.792Z,10.97
2018-10-09T03:04:44.861Z,10.94
2018-10-09T03:07:12.920Z,10.90
2018-10-09T03:09:40.997Z,10.87
2018-10-09T03:12:09.064Z,10.83
2018-10-09T03:14:37.140Z,10.81
2018-10-09T03:17:05.212Z,10.78
2018-10-09T03:19:33.286Z,10.72
2018-10-09T03:22:01.352Z,10.69
2018-10-09T03:24:29.422Z,10.68
2018-10-09T03:26:57.525Z,10.64
2018-10-09T03:29:25.589Z,10.62
2018-10-09T03:31:53.653Z,10.58
2018-10-09T03:34:21.740Z,10.57
2018-10-09T03:36:49.865Z,10.55
2018-10-09T03:39:17.928Z,10.53
2018-10-09T03:41:46.008Z,10.51
2018-10-09T03:44:14.085Z,10.48
2018-10-09T03:46:42.187Z,10.47
2018-10-09T03:49:10.256Z,10.46
2018-10-09T03:51:38.324Z,10.45
2018-10-09T03:54:06.516Z,10.44
2018-10-09T03:56:34.604Z,10.43
2018-10-09T03:59:02.664Z,10.42
2018-10-09T04:01:30.740Z,10.42
2018-10-09T04:03:58.924Z,10.41
2018-10-09T04:06:27.357Z,10.41
2018-10-09T04:08:55.486Z,10.40
2018-10-09T04:11:23.537Z,10.39
2018-10-09T04:13:51.620Z,10.39
2018-10-09T04:16:19.711Z,10.38
2018-10-09T04:18:47.844Z,10.38
2018-10-09T04:21:15.926Z,10.38
2018-10-09T04:23:43.997Z,10.37
2018-10-09T04:26:12.098Z,10.36
2018-10-09T04:28:40.196Z,10.37
2018-10-09T04:31:08.261Z,10.34
2018-10-09T04:33:36.352Z,10.33
2018-10-09T04:36:04.438Z,10.32
2018-10-09T04:38:32.533Z,10.29
2018-10-09T04:41:00.615Z,10.29
2018-10-09T04:43:28.691Z,10.28
2018-10-09T04:45:56.764Z,10.26
2018-10-09T04:48:24.861Z,10.25
2018-10-09T04:50:53.027Z,10.21
2018-10-09T04:53:21.100Z,10.19
2018-10-09T04:55:49.200Z,10.19
2018-10-09T04:58:17.280Z,10.19
2018-10-09T05:00:45.437Z,10.22
2018-10-09T05:03:13.478Z,10.23
2018-10-09T05:05:41.549Z,10.25
2018-10-09T05:08:09.648Z,10.26
2018-10-09T05:10:37.763Z,10.26
2018-10-09T05:13:05.833Z,10.28
2018-10-09T05:15:33.922Z,10.29
2018-10-09T05:18:02.025Z,10.30
2018-10-09T05:20:30.113Z,10.34
2018-10-09T05:22:58.188Z,10.37
2018-10-09T05:25:26.270Z,10.42
2018-10-09T05:27:54.360Z,10.45
2018-10-09T05:30:22.461Z,10.48
2018-10-09T05:32:50.544Z,10.50
2018-10-09T05:35:18.661Z,10.53
2018-10-09T05:37:46.815Z,10.55
2018-10-09T05:40:14.833Z,10.56
2018-10-09T05:42:42.910Z,10.56
2018-10-09T05:45:10.989Z,10.56
2018-10-09T05:47:39.165Z,10.56
2018-10-09T05:50:08.268Z,10.58
2018-10-09T05:52:36.647Z,10.61
2018-10-09T05:55:04.706Z,10.63
2018-10-09T05:57:32.805Z,10.65
2018-10-09T06:00:00.913Z,10.67
2018-10-09T06:02:28.984Z,10.69
2018-10-09T06:04:57.060Z,10.72
2018-10-09T06:07:25.128Z,10.75
2018-10-09T06:09:53.209Z,10.77
2018-10-09T06:12:21.289Z,10.79
2018-10-09T06:14:49.365Z,10.81
2018-10-09T06:17:17.445Z,10.83
2018-10-09T06:19:45.512Z,10.86
2018-10-09T06:22:13.625Z,10.86
2018-10-09T06:24:41.689Z,10.89
2018-10-09T06:27:09.806Z,10.91
2018-10-09T06:29:37.897Z,10.94
2018-10-09T06:32:05.996Z,10.97
2018-10-09T06:34:34.096Z,11.00
2018-10-09T06:37:02.199Z,11.04
2018-10-09T06:39:30.296Z,11.08
2018-10-09T06:41:58.456Z,11.14
2018-10-09T06:44:26.593Z,11.17
2018-10-09T06:46:54.672Z,11.23
2018-10-09T06:49:22.789Z,11.28
2018-10-09T06:51:50.868Z,11.34
2018-10-09T06:54:18.967Z,11.41
2018-10-09T06:56:47.060Z,11.50
2018-10-09T06:59:15.301Z,11.60
2018-10-09T07:01:43.423Z,11.71
2018-10-09T07:04:11.493Z,11.88
2018-10-09T07:06:39.621Z,12.08
2018-10-09T07:09:09.756Z,12.27
2018-10-09T07:11:37.886Z,12.53
2018-10-09T07:14:05.975Z,12.82
2018-10-09T07:16:34.158Z,13.10
2018-10-09T07:19:02.284Z,13.32
2018-10-09T07:21:30.369Z,13.50
2018-10-09T07:23:58.459Z,13.62
2018-10-09T07:26:26.555Z,13.63
2018-10-09T07:28:54.661Z,13.67
2018-10-09T07:31:22.757Z,13.66
2018-10-09T07:33:50.905Z,13.67
2018-10-09T07:36:19.029Z,13.70
2018-10-09T07:38:47.129Z,13.74
2018-10-09T07:41:15.230Z,13.77
2018-10-09T07:43:43.363Z,13.83
2018-10-09T07:46:11.442Z,13.89
2018-10-09T07:48:39.537Z,13.96
2018-10-09T07:51:07.685Z,14.09
2018-10-09T07:53:35.797Z,14.20
2018-10-09T07:56:03.881Z,14.29
2018-10-09T07:58:32.023Z,14.36
2018-10-09T08:01:00.055Z,14.44
2018-10-09T08:03:28.143Z,14.54
2018-10-09T08:05:56.240Z,14.64
2018-10-09T08:08:24.317Z,14.70
2018-10-09T08:10:52.419Z,14.76
2018-10-09T08:13:20.566Z,14.81
2018-10-09T08:15:48.651Z,14.85
2018-10-09T08:18:16.728Z,14.86
2018-10-09T08:20:44.832Z,14.85
2018-10-09T08:23:12.946Z,14.90
2018-10-09T08:25:41.045Z,14.95
2018-10-09T08:28:09.202Z,14.98
2018-10-09T08:30:37.225Z,14.99
2018-10-09T08:33:05.330Z,15.03
2018-10-09T08:35:33.416Z,14.98
2018-10-09T08:38:01.485Z,14.98
2018-10-09T08:40:29.694Z,15.02
2018-10-09T08:42:57.667Z,15.05
2018-10-09T08:45:25.753Z,15.08
2018-10-09T08:47:53.825Z,15.08
2018-10-09T08:50:21.907Z,15.11
2018-10-09T08:52:49.990Z,15.19
2018-10-09T08:55:18.085Z,15.25
2018-10-09T08:57:46.153Z,15.31
2018-10-09T09:00:14.237Z,15.38
2018-10-09T09:02:42.310Z,15.45
2018-10-09T09:05:10.394Z,15.52
2018-10-09T09:07:38.505Z,15.57
2018-10-09T09:10:06.985Z,15.66
2018-10-09T09:12:35.086Z,15.75
2018-10-09T09:15:03.163Z,15.83
2018-10-09T09:17:31.253Z,15.87
2018-10-09T09:19:59.320Z,15.89
2018-10-09T09:22:27.407Z,15.93
2018-10-09T09:24:55.486Z,16.03
2018-10-09T09:27:23.613Z,16.17
2018-10-09T09:29:51.672Z,16.30
2018-10-09T09:32:19.749Z,16.37
2018-10-09T09:34:47.850Z,16.45
2018-10-09T09:37:16.028Z,16.52
2018-10-09T09:39:44.119Z,16.56
2018-10-09T09:42:12.223Z,16.65
2018-10-09T09:44:40.302Z,16.69
2018-10-09T09:47:08.415Z,16.77
2018-10-09T09:49:36.523Z,16.89
2018-10-09T09:52:04.670Z,16.93
2018-10-09T09:54:32.737Z,16.99
2018-10-09T09:57:00.825Z,17.04
2018-10-09T09:59:28.937Z,17.03
2018-10-09T10:01:57.035Z,17.09
2018-10-09T10:04:25.210Z,17.12
2018-10-09T10:06:53.305Z,17.14
2018-10-09T10:09:21.430Z,17.20
2018-10-09T10:11:49.481Z,17.26
2018-10-09T10:14:17.650Z,17.39
2018-10-09T10:16:45.715Z,17.53
2018-10-09T10:19:13.794Z,17.71
2018-10-09T10:21:41.886Z,17.88
2018-10-09T10:24:09.979Z,18.06
2018-10-09T10:26:38.048Z,18.18
2018-10-09T10:29:06.588Z,18.24
2018-10-09T10:31:34.673Z,18.29
2018-10-09T10:34:02.890Z,18.27
2018-10-09T10:36:31.044Z,18.26
2018-10-09T10:38:59.109Z,18.32
2018-10-09T10:41:27.202Z,18.41
2018-10-09T10:43:55.341Z,18.52
2018-10-09T10:46:23.450Z,18.53
2018-10-09T10:49:01.257Z,18.54
2018-10-09T10:51:29.392Z,18.56
2018-10-09T10:53:57.754Z,18.69
2018-10-09T10:56:25.846Z,18.93
2018-10-09T10:58:53.950Z,19.18
2018-10-09T11:01:22.174Z,19.36
2018-10-09T11:03:50.165Z,19.46
2018-10-09T11:06:18.297Z,19.56
2018-10-09T11:08:46.890Z,19.68
2018-10-09T11:11:15.013Z,19.86
2018-10-09T11:13:43.153Z,20.09
2018-10-09T11:16:11.297Z,20.37
2018-10-09T11:18:39.369Z,20.73
2018-10-09T11:21:07.817Z,21.07
2018-10-09T11:23:35.899Z,21.35
2018-10-09T11:26:03.992Z,21.65
2018-10-09T11:28:32.463Z,21.95
2018-10-09T11:31:00.549Z,22.32
2018-10-09T11:33:28.708Z,22.47
2018-10-09T11:35:56.818Z,22.55
2018-10-09T11:38:24.945Z,22.52
2018-10-09T11:40:53.041Z,22.48
2018-10-09T11:43:21.210Z,22.49
2018-10-09T11:45:49.302Z,22.50
2018-10-09T11:48:17.445Z,22.53
2018-10-09T11:50:45.530Z,22.59
2018-10-09T11:53:13.675Z,22.76
2018-10-09T11:55:41.855Z,22.97
2018-10-09T11:58:09.933Z,23.16
2018-10-09T12:00:39.851Z,23.37
2018-10-09T12:03:08.065Z,23.58
2018-10-09T12:05:36.441Z,23.77
2018-10-09T12:08:04.495Z,23.94
2018-10-09T12:10:32.735Z,24.05
2018-10-09T12:13:01.017Z,24.07
2018-10-09T12:15:29.137Z,24.23
2018-10-09T12:17:57.262Z,24.41
2018-10-09T12:20:25.335Z,24.57
2018-10-09T12:22:53.717Z,24.65
2018-10-09T12:25:22.065Z,24.82
2018-10-09T12:27:50.146Z,25.01
2018-10-09T12:30:18.521Z,25.16
2018-10-09T12:32:46.643Z,25.22
2018-10-09T12:35:14.686Z,25.29
2018-10-09T12:37:42.774Z,25.35
2018-10-09T12:40:10.905Z,25.43
2018-10-09T12:42:38.985Z,25.50
2018-10-09T12:45:07.053Z,25.53
2018-10-09T12:47:35.140Z,25.51
2018-10-09T12:50:03.257Z,25.46
2018-10-09T12:52:31.321Z,25.26
2018-10-09T12:54:59.426Z,25.12
2018-10-09T12:57:27.507Z,25.17
2018-10-09T12:59:55.565Z,25.16
2018-10-09T13:02:23.710Z,25.08
2018-10-09T13:04:51.764Z,25.14
2018-10-09T13:07:19.913Z,25.17
2018-10-09T13:09:48.026Z,25.21
2018-10-09T13:12:16.184Z,25.28
2018-10-09T13:14:44.284Z,25.21
2018-10-09T13:17:12.455Z,25.14
2018-10-09T13:19:40.504Z,25.17
2018-10-09T13:22:09.041Z,25.11
2018-10-09T13:24:36.741Z,25.04
2018-10-09T13:27:04.999Z,24.93
2018-10-09T13:29:33.121Z,24.89
2018-10-09T13:32:01.194Z,24.90
2018-10-09T13:34:29.456Z,24.86
2018-10-09T13:36:57.547Z,24.80
2018-10-09T13:39:25.617Z,24.67
2018-10-09T13:41:53.773Z,24.51
2018-10-09T13:44:21.928Z,24.39
2018-10-09T13:46:50.082Z,24.29
2018-10-09T13:49:18.156Z,24.13
2018-10-09T13:51:46.403Z,24.02
2018-10-09T13:54:14.552Z,23.97
2018-10-09T13:56:42.634Z,23.92
2018-10-09T13:59:10.893Z,23.81
2018-10-09T14:01:38.985Z,23.71
2018-10-09T14:04:07.217Z,23.63
2018-10-09T14:06:35.290Z,23.55
2018-10-09T14:09:04.441Z,23.48
2018-10-09T14:11:32.529Z,23.49
2018-10-09T14:14:00.623Z,23.48
2018-10-09T14:16:28.714Z,23.39
2018-10-09T14:18:56.809Z,23.33
2018-10-09T14:21:24.902Z,23.28
2018-10-09T14:23:53.136Z,23.29
2018-10-09T14:26:21.253Z,23.31
2018-10-09T14:28:49.353Z,23.35
2018-10-09T14:31:17.444Z,23.35
2018-10-09T14:33:45.525Z,23.32
2018-10-09T14:36:13.660Z,23.20
2018-10-09T14:38:41.756Z,23.15
2018-10-09T14:41:09.842Z,23.14
2018-10-09T14:43:37.926Z,23.10
2018-10-09T14:46:06.019Z,23.07
2018-10-09T14:48:34.093Z,23.04
2018-10-09T14:51:02.185Z,23.00
2018-10-09T14:53:30.275Z,22.91
2018-10-09T14:55:58.362Z,22.83
2018-10-09T14:58:26.453Z,22.67
2018-10-09T15:00:54.555Z,22.47
2018-10-09T15:03:22.659Z,22.34
2018-10-09T15:05:50.758Z,22.25
2018-10-09T15:08:18.859Z,22.19
2018-10-09T15:10:46.952Z,22.09
2018-10-09T15:13:15.234Z,22.01
2018-10-09T15:15:43.385Z,21.93
2018-10-09T15:18:11.472Z,21.82
2018-10-09T15:20:39.555Z,21.74
2018-10-09T15:23:07.925Z,21.71
2018-10-09T15:25:36.049Z,21.67
2018-10-09T15:28:04.138Z,21.63
2018-10-09T15:30:32.229Z,21.58
2018-10-09T15:33:00.517Z,21.53
2018-10-09T15:35:28.691Z,21.45
2018-10-09T15:37:56.725Z,21.39
2018-10-09T15:40:24.804Z,21.34
2018-10-09T15:42:52.897Z,21.29
2018-10-09T15:45:20.973Z,21.22
2018-10-09T15:47:49.057Z,21.17
2018-10-09T15:50:17.162Z,21.15
2018-10-09T15:52:45.303Z,21.07
2018-10-09T15:55:13.369Z,20.94
2018-10-09T15:57:41.459Z,20.93
2018-10-09T16:00:09.563Z,20.84
2018-10-09T16:02:37.692Z,20.75
2018-10-09T16:05:05.782Z,20.66
2018-10-09T16:07:33.870Z,20.56
2018-10-09T16:10:01.987Z,20.45
2018-10-09T16:12:30.142Z,20.36
2018-10-09T16:14:58.231Z,20.26
2018-10-09T16:17:28.601Z,20.13
2018-10-09T16:19:56.712Z,20.00
2018-10-09T16:22:24.894Z,19.88
2018-10-09T16:24:52.997Z,19.77
2018-10-09T16:27:21.138Z,19.67
2018-10-09T16:29:49.217Z,19.56
2018-10-09T16:32:17.329Z,19.43
2018-10-09T16:34:45.429Z,19.28
2018-10-09T16:37:13.694Z,19.14
2018-10-09T16:39:41.785Z,19.01
2018-10-09T16:42:09.885Z,18.85
2018-10-09T16:44:38.001Z,18.72
2018-10-09T16:47:06.957Z,18.60
2018-10-09T16:49:36.612Z,18.47
2018-10-09T16:52:04.792Z,18.35
2018-10-09T16:54:33.219Z,18.24
2018-10-09T16:57:01.326Z,18.13
2018-10-09T16:59:29.457Z,18.01
2018-10-09T17:01:57.557Z,17.90
2018-10-09T17:04:25.673Z,17.79
2018-10-09T17:06:53.801Z,17.69
2018-10-09T17:09:21.869Z,17.59
2018-10-09T17:11:49.944Z,17.49
2018-10-09T17:14:18.053Z,17.40
2018-10-09T17:16:46.173Z,17.29
2018-10-09T17:19:14.258Z,17.19
2018-10-09T17:21:42.330Z,17.09
2018-10-09T17:24:10.428Z,17.01
2018-10-09T17:26:39.406Z,16.92
2018-10-09T17:29:07.510Z,16.84
2018-10-09T17:31:35.656Z,16.75
2018-10-09T17:34:03.777Z,16.67
2018-10-09T17:36:31.846Z,16.58
2018-10-09T17:38:59.946Z,16.51
2018-10-09T17:41:28.009Z,16.44
2018-10-09T17:43:56.089Z,16.37
2018-10-09T17:46:24.973Z,16.30
2018-10-09T17:48:52.884Z,16.23
2018-10-09T17:51:20.942Z,16.15
2018-10-09T17:53:49.077Z,16.08
2018-10-09T17:56:17.146Z,16.01
2018-10-09T17:58:45.204Z,15.92
2018-10-09T18:01:13.292Z,15.85
2018-10-09T18:03:41.358Z,15.77
2018-10-09T18:06:09.434Z,15.69
2018-10-09T18:08:37.512Z,15.63
2018-10-09T18:11:05.617Z,15.56
2018-10-09T18:13:33.690Z,15.48
2018-10-09T18:16:01.828Z,15.43
2018-10-09T18:18:29.868Z,15.36
2018-10-09T18:20:57.942Z,15.30
2018-10-09T18:23:26.023Z,15.24
2018-10-09T18:25:54.100Z,15.19
2018-10-09T18:28:22.166Z,15.14
2018-10-09T18:30:50.238Z,15.10
2018-10-09T18:33:18.465Z,15.06
2018-10-09T18:35:46.405Z,15.00
2018-10-09T18:38:14.469Z,14.94
2018-10-09T18:40:42.690Z,14.90
2018-10-09T18:43:10.707Z,14.84
2018-10-09T18:45:38.793Z,14.78
2018-10-09T18:48:06.869Z,14.73
2018-10-09T18:50:34.929Z,14.67
2018-10-09T18:53:02.988Z,14.60
2018-10-09T18:55:31.065Z,14.53
2018-10-09T18:57:59.133Z,14.46
2018-10-09T19:00:27.197Z,14.41
2018-10-09T19:02:55.273Z,14.36
2018-10-09T19:05:23.354Z,14.32
2018-10-09T19:07:51.558Z,14.27
2018-10-09T19:10:19.635Z,14.23
2018-10-09T19:12:47.714Z,14.19
2018-10-09T19:15:15.782Z,14.16
2018-10-09T19:17:43.920Z,14.11
2018-10-09T19:20:12.006Z,14.06
2018-10-09T19:22:40.094Z,13.99
2018-10-09T19:25:08.407Z,13.93
2018-10-09T19:27:36.500Z,13.87
2018-10-09T19:30:04.849Z,13.80
2018-10-09T19:32:32.960Z,13.76
2018-10-09T19:35:01.062Z,13.73
2018-10-09T19:37:29.192Z,13.68
2018-10-09T19:39:57.266Z,13.65
2018-10-09T19:42:25.357Z,13.63
2018-10-09T19:44:53.495Z,13.60
2018-10-09T19:47:21.589Z,13.58
2018-10-09T19:49:49.731Z,13.55
2018-10-09T19:52:17.948Z,13.51
2018-10-09T19:54:46.005Z,13.44
2018-10-09T19:57:14.101Z,13.38
2018-10-09T19:59:42.202Z,13.34
2018-10-09T20:02:10.285Z,13.29
2018-10-09T20:04:38.546Z,13.23
2018-10-09T20:07:06.667Z,13.19
2018-10-09T20:09:34.721Z,13.12
2018-10-09T20:12:02.826Z,13.10
2018-10-09T20:14:30.977Z,13.06
2018-10-09T20:16:59.050Z,13.03
2018-10-09T20:19:27.190Z,13.01
2018-10-09T20:21:55.278Z,12.98
2018-10-09T20:24:23.357Z,12.95
2018-10-09T20:26:51.458Z,12.92
2018-10-09T20:29:19.541Z,12.87
2018-10-09T20:31:47.652Z,12.86
2018-10-09T20:34:15.740Z,12.83
2018-10-09T20:36:43.818Z,12.78
2018-10-09T20:39:11.922Z,12.73
2018-10-09T20:41:40.008Z,12.70
2018-10-09T20:44:08.206Z,12.68
2018-10-09T20:46:36.272Z,12.64
2018-10-09T20:49:04.345Z,12.62
2018-10-09T20:51:32.409Z,12.60
2018-10-09T20:54:00.491Z,12.58
2018-10-09T20:56:28.565Z,12.56
2018-10-09T20:58:56.653Z,12.53
2018-10-09T21:01:24.719Z,12.50
2018-10-09T21:03:52.832Z,12.46
2018-10-09T21:06:20.905Z,12.42
2018-10-09T21:08:49.034Z,12.39
2018-10-09T21:11:17.114Z,12.35
2018-10-09T21:13:45.198Z,12.33
2018-10-09T21:16:13.318Z,12.29
2018-10-09T21:18:41.382Z,12.25
2018-10-09T21:21:09.455Z,12.22
2018-10-09T21:23:37.529Z,12.19
2018-10-09T21:26:05.606Z,12.17
2018-10-09T21:28:33.681Z,12.14
2018-10-09T21:31:01.775Z,12.13
2018-10-09T21:33:29.862Z,12.08
2018-10-09T21:35:57.949Z,12.07
2018-10-09T21:38:26.042Z,12.03
2018-10-09T21:40:54.128Z,12.00
2018-10-09T21:43:22.214Z,11.98
2018-10-09T21:45:50.399Z,11.96
2018-10-09T21:48:18.466Z,11.92
2018-10-09T21:50:46.541Z,11.89
2018-10-09T21:53:14.636Z,11.85
2018-10-09T21:55:42.713Z,11.81
2018-10-09T21:58:10.798Z,11.78
2018-10-09T22:00:44.157Z,11.77
2018-10-09T22:03:12.283Z,11.75
2018-10-09T22:05:40.370Z,11.73
2018-10-09T22:08:08.449Z,11.72
2018-10-09T22:10:36.549Z,11.70
2018-10-09T22:13:04.633Z,11.66
2018-10-09T22:15:32.710Z,11.61
2018-10-09T22:18:00.805Z,11.56
2018-10-09T22:20:28.896Z,11.53
2018-10-09T22:22:57.002Z,11.49
2018-10-09T22:25:25.071Z,11.46
2018-10-09T22:27:53.157Z,11.42
2018-10-09T22:30:21.226Z,11.40
2018-10-09T22:32:49.338Z,11.36
2018-10-09T22:35:17.493Z,11.34
2018-10-09T22:37:45.572Z,11.30
2018-10-09T22:40:13.672Z,11.28
2018-10-09T22:42:41.745Z,11.26
2018-10-09T22:45:09.822Z,11.22
2018-10-09T22:47:37.890Z,11.18
2018-10-09T22:50:06.018Z,11.17
2018-10-09T22:52:34.090Z,11.16
2018-10-09T22:55:02.177Z,11.14
2018-10-09T22:57:30.237Z,11.07
2018-10-09T22:59:58.310Z,11.03
2018-10-09T23:02:26.386Z,11.02
2018-10-09T23:04:54.469Z,11.02
2018-10-09T23:07:22.574Z,11.01
2018-10-09T23:09:50.652Z,10.99
2018-10-09T23:12:18.750Z,10.94
2018-10-09T23:14:46.925Z,10.91
2018-10-09T23:17:15.057Z,10.89
2018-10-09T23:19:43.137Z,10.86
2018-10-09T23:22:11.232Z,10.85
2018-10-09T23:24:39.306Z,10.82
2018-10-09T23:27:07.445Z,10.81
2018-10-09T23:29:35.549Z,10.81
2018-10-09T23:32:03.657Z,10.79
2018-10-09T23:34:31.747Z,10.75
2018-10-09T23:36:59.831Z,10.70
2018-10-09T23:39:27.903Z,10.66
2018-10-09T23:41:56.007Z,10.63
2018-10-09T23:44:24.069Z,10.63
2018-10-09T23:46:52.153Z,10.60
2018-10-09T23:49:20.221Z,10.60
2018-10-09T23:51:48.326Z,10.58
2018-10-09T23:54:16.413Z,10.57
2018-10-09T23:56:44.494Z,10.55
2018-10-09T23:59:12.561Z,10.54
